sensor_id;sensor_type;location;lat;lon;timestamp;P1;durP1;ratioP1;P2;durP2;ratioP2
15071;SDS011;7635;56.696;13.002;2023-01-09T00:00:45;3.97;;;3.30;;
15071;SDS011;7635;56.696;13.002;2023-01-09T00:03:12;8.67;;;4.10;;
15071;SDS011;7635;56.696;13.002;2023-01-09T00:05:39;4.57;;;3.40;;
15071;SDS011;7635;56.696;13.002;2023-01-09T00:08:06;4.47;;;3.30;;
15071;SDS011;7635;56.696;13.002;2023-01-09T00:10:33;7.70;;;3.70;;
15071;SDS011;7635;56.696;13.002;2023-01-09T00:13:00;4.53;;;3.20;;
15071;SDS011;7635;56.696;13.002;2023-01-09T00:15:26;4.70;;;2.97;;
15071;SDS011;7635;56.696;13.002;2023-01-09T00:17:54;3.23;;;2.73;;
15071;SDS011;7635;56.696;13.002;2023-01-09T00:20:21;6.40;;;2.80;;
15071;SDS011;7635;56.696;13.002;2023-01-09T00:22:48;3.83;;;2.97;;
15071;SDS011;7635;56.696;13.002;2023-01-09T00:25:14;4.80;;;3.10;;
15071;SDS011;7635;56.696;13.002;2023-01-09T00:27:41;4.67;;;3.00;;
15071;SDS011;7635;56.696;13.002;2023-01-09T00:30:08;3.70;;;2.77;;
15071;SDS011;7635;56.696;13.002;2023-01-09T00:32:36;6.03;;;3.23;;
15071;SDS011;7635;56.696;13.002;2023-01-09T00:35:04;3.20;;;2.90;;
15071;SDS011;7635;56.696;13.002;2023-01-09T00:37:33;3.70;;;3.07;;
15071;SDS011;7635;56.696;13.002;2023-01-09T00:40:00;6.23;;;3.03;;
15071;SDS011;7635;56.696;13.002;2023-01-09T00:42:27;3.60;;;2.70;;
15071;SDS011;7635;56.696;13.002;2023-01-09T00:44:58;3.83;;;2.83;;
15071;SDS011;7635;56.696;13.002;2023-01-09T00:47:30;3.67;;;3.00;;
15071;SDS011;7635;56.696;13.002;2023-01-09T00:50:04;4.73;;;3.07;;
15071;SDS011;7635;56.696;13.002;2023-01-09T00:52:33;3.07;;;2.70;;
15071;SDS011;7635;56.696;13.002;2023-01-09T00:55:02;3.67;;;2.70;;
15071;SDS011;7635;56.696;13.002;2023-01-09T00:57:29;3.40;;;2.63;;
15071;SDS011;7635;56.696;13.002;2023-01-09T00:59:56;3.57;;;2.50;;
15071;SDS011;7635;56.696;13.002;2023-01-09T01:02:23;4.97;;;2.40;;
15071;SDS011;7635;56.696;13.002;2023-01-09T01:04:50;3.90;;;2.70;;
15071;SDS011;7635;56.696;13.002;2023-01-09T01:07:50;2.43;;;2.23;;
15071;SDS011;7635;56.696;13.002;2023-01-09T01:10:18;4.33;;;2.60;;
15071;SDS011;7635;56.696;13.002;2023-01-09T01:12:46;5.17;;;2.60;;
15071;SDS011;7635;56.696;13.002;2023-01-09T01:15:14;4.87;;;2.90;;
15071;SDS011;7635;56.696;13.002;2023-01-09T01:17:41;4.67;;;2.90;;
15071;SDS011;7635;56.696;13.002;2023-01-09T01:20:09;4.23;;;3.13;;
15071;SDS011;7635;56.696;13.002;2023-01-09T01:22:38;4.43;;;2.70;;
15071;SDS011;7635;56.696;13.002;2023-01-09T01:25:08;4.33;;;2.67;;
15071;SDS011;7635;56.696;13.002;2023-01-09T01:27:35;3.53;;;2.47;;
15071;SDS011;7635;56.696;13.002;2023-01-09T01:30:03;5.87;;;2.30;;
15071;SDS011;7635;56.696;13.002;2023-01-09T01:32:30;4.73;;;2.67;;
15071;SDS011;7635;56.696;13.002;2023-01-09T01:34:57;3.03;;;2.30;;
15071;SDS011;7635;56.696;13.002;2023-01-09T01:37:23;3.00;;;2.47;;
15071;SDS011;7635;56.696;13.002;2023-01-09T01:39:51;4.53;;;2.73;;
15071;SDS011;7635;56.696;13.002;2023-01-09T01:42:20;3.27;;;2.80;;
15071;SDS011;7635;56.696;13.002;2023-01-09T01:44:56;2.90;;;2.23;;
15071;SDS011;7635;56.696;13.002;2023-01-09T01:47:29;2.90;;;2.37;;
15071;SDS011;7635;56.696;13.002;2023-01-09T01:50:01;2.60;;;2.23;;
15071;SDS011;7635;56.696;13.002;2023-01-09T01:52:30;2.50;;;2.30;;
15071;SDS011;7635;56.696;13.002;2023-01-09T01:54:58;3.93;;;2.77;;
15071;SDS011;7635;56.696;13.002;2023-01-09T01:57:27;4.83;;;3.30;;
15071;SDS011;7635;56.696;13.002;2023-01-09T01:59:55;3.90;;;2.87;;
15071;SDS011;7635;56.696;13.002;2023-01-09T02:02:25;3.47;;;2.67;;
15071;SDS011;7635;56.696;13.002;2023-01-09T02:04:56;4.17;;;2.77;;
15071;SDS011;7635;56.696;13.002;2023-01-09T02:07:23;5.37;;;2.70;;
15071;SDS011;7635;56.696;13.002;2023-01-09T02:09:50;4.33;;;2.43;;
15071;SDS011;7635;56.696;13.002;2023-01-09T02:12:18;3.90;;;2.90;;
15071;SDS011;7635;56.696;13.002;2023-01-09T02:14:50;3.83;;;2.73;;
15071;SDS011;7635;56.696;13.002;2023-01-09T02:17:26;3.27;;;2.60;;
15071;SDS011;7635;56.696;13.002;2023-01-09T02:20:17;3.67;;;2.90;;
15071;SDS011;7635;56.696;13.002;2023-01-09T02:23:14;3.93;;;2.67;;
15071;SDS011;7635;56.696;13.002;2023-01-09T02:26:18;4.13;;;3.00;;
15071;SDS011;7635;56.696;13.002;2023-01-09T02:29:24;4.57;;;2.87;;
15071;SDS011;7635;56.696;13.002;2023-01-09T02:32:11;5.23;;;3.30;;
15071;SDS011;7635;56.696;13.002;2023-01-09T02:34:51;4.23;;;2.60;;
15071;SDS011;7635;56.696;13.002;2023-01-09T02:37:30;4.37;;;2.90;;
15071;SDS011;7635;56.696;13.002;2023-01-09T02:40:03;3.63;;;2.87;;
15071;SDS011;7635;56.696;13.002;2023-01-09T02:42:37;5.13;;;3.23;;
15071;SDS011;7635;56.696;13.002;2023-01-09T02:45:07;5.03;;;2.80;;
15071;SDS011;7635;56.696;13.002;2023-01-09T02:47:36;4.20;;;3.30;;
15071;SDS011;7635;56.696;13.002;2023-01-09T02:50:06;3.90;;;2.80;;
15071;SDS011;7635;56.696;13.002;2023-01-09T02:52:42;4.57;;;2.87;;
15071;SDS011;7635;56.696;13.002;2023-01-09T02:55:26;3.80;;;2.93;;
15071;SDS011;7635;56.696;13.002;2023-01-09T02:58:05;4.27;;;3.30;;
15071;SDS011;7635;56.696;13.002;2023-01-09T03:00:36;4.27;;;3.10;;
15071;SDS011;7635;56.696;13.002;2023-01-09T03:03:17;5.53;;;3.40;;
15071;SDS011;7635;56.696;13.002;2023-01-09T03:05:50;4.47;;;3.70;;
15071;SDS011;7635;56.696;13.002;2023-01-09T03:08:23;3.87;;;3.17;;
15071;SDS011;7635;56.696;13.002;2023-01-09T03:10:57;4.07;;;3.03;;
15071;SDS011;7635;56.696;13.002;2023-01-09T03:13:27;4.30;;;3.17;;
15071;SDS011;7635;56.696;13.002;2023-01-09T03:15:58;3.10;;;2.80;;
15071;SDS011;7635;56.696;13.002;2023-01-09T03:18:30;3.90;;;3.03;;
15071;SDS011;7635;56.696;13.002;2023-01-09T03:20:57;3.70;;;2.90;;
15071;SDS011;7635;56.696;13.002;2023-01-09T03:23:25;3.40;;;2.50;;
15071;SDS011;7635;56.696;13.002;2023-01-09T03:25:52;3.63;;;2.50;;
15071;SDS011;7635;56.696;13.002;2023-01-09T03:28:21;2.70;;;2.47;;
15071;SDS011;7635;56.696;13.002;2023-01-09T03:30:51;5.97;;;3.40;;
15071;SDS011;7635;56.696;13.002;2023-01-09T03:33:18;4.33;;;3.00;;
15071;SDS011;7635;56.696;13.002;2023-01-09T03:35:46;3.33;;;3.03;;
15071;SDS011;7635;56.696;13.002;2023-01-09T03:38:13;4.77;;;3.40;;
15071;SDS011;7635;56.696;13.002;2023-01-09T03:40:39;4.07;;;3.07;;
15071;SDS011;7635;56.696;13.002;2023-01-09T03:43:07;5.00;;;2.70;;
15071;SDS011;7635;56.696;13.002;2023-01-09T03:45:34;3.13;;;2.70;;
15071;SDS011;7635;56.696;13.002;2023-01-09T03:48:01;4.53;;;3.37;;
15071;SDS011;7635;56.696;13.002;2023-01-09T03:50:28;3.17;;;2.70;;
15071;SDS011;7635;56.696;13.002;2023-01-09T03:52:56;4.77;;;3.00;;
15071;SDS011;7635;56.696;13.002;2023-01-09T03:55:22;4.43;;;3.13;;
15071;SDS011;7635;56.696;13.002;2023-01-09T03:57:49;4.10;;;3.17;;
15071;SDS011;7635;56.696;13.002;2023-01-09T04:00:17;4.30;;;3.23;;
15071;SDS011;7635;56.696;13.002;2023-01-09T04:02:44;3.87;;;3.07;;
15071;SDS011;7635;56.696;13.002;2023-01-09T04:05:10;4.33;;;3.07;;
15071;SDS011;7635;56.696;13.002;2023-01-09T04:07:37;2.10;;;1.83;;
15071;SDS011;7635;56.696;13.002;2023-01-09T04:10:06;4.33;;;3.40;;
15071;SDS011;7635;56.696;13.002;2023-01-09T04:12:33;4.77;;;3.10;;
15071;SDS011;7635;56.696;13.002;2023-01-09T04:15:00;3.70;;;2.80;;
15071;SDS011;7635;56.696;13.002;2023-01-09T04:17:27;4.40;;;2.90;;
15071;SDS011;7635;56.696;13.002;2023-01-09T04:19:53;3.73;;;2.67;;
15071;SDS011;7635;56.696;13.002;2023-01-09T04:22:20;4.70;;;3.13;;
15071;SDS011;7635;56.696;13.002;2023-01-09T04:24:47;4.17;;;3.07;;
15071;SDS011;7635;56.696;13.002;2023-01-09T04:27:15;3.73;;;3.03;;
15071;SDS011;7635;56.696;13.002;2023-01-09T04:29:43;6.00;;;3.57;;
15071;SDS011;7635;56.696;13.002;2023-01-09T04:32:10;2.57;;;2.37;;
15071;SDS011;7635;56.696;13.002;2023-01-09T04:34:36;3.90;;;2.63;;
15071;SDS011;7635;56.696;13.002;2023-01-09T04:37:03;2.97;;;2.43;;
15071;SDS011;7635;56.696;13.002;2023-01-09T04:39:30;2.93;;;2.57;;
15071;SDS011;7635;56.696;13.002;2023-01-09T04:41:56;2.80;;;2.30;;
15071;SDS011;7635;56.696;13.002;2023-01-09T04:44:24;3.20;;;2.27;;
15071;SDS011;7635;56.696;13.002;2023-01-09T04:46:51;5.03;;;3.10;;
15071;SDS011;7635;56.696;13.002;2023-01-09T04:49:19;3.53;;;2.60;;
15071;SDS011;7635;56.696;13.002;2023-01-09T04:51:46;3.40;;;2.60;;
15071;SDS011;7635;56.696;13.002;2023-01-09T04:54:13;4.43;;;2.63;;
15071;SDS011;7635;56.696;13.002;2023-01-09T04:56:40;2.57;;;2.37;;
15071;SDS011;7635;56.696;13.002;2023-01-09T04:59:07;4.10;;;3.30;;
15071;SDS011;7635;56.696;13.002;2023-01-09T05:01:35;2.77;;;2.27;;
15071;SDS011;7635;56.696;13.002;2023-01-09T05:04:02;3.53;;;2.63;;
15071;SDS011;7635;56.696;13.002;2023-01-09T05:06:29;6.43;;;2.90;;
15071;SDS011;7635;56.696;13.002;2023-01-09T05:08:56;3.10;;;2.60;;
15071;SDS011;7635;56.696;13.002;2023-01-09T05:11:23;3.77;;;2.50;;
15071;SDS011;7635;56.696;13.002;2023-01-09T05:13:50;3.40;;;2.37;;
15071;SDS011;7635;56.696;13.002;2023-01-09T05:16:17;2.53;;;2.30;;
15071;SDS011;7635;56.696;13.002;2023-01-09T05:18:45;3.07;;;2.47;;
15071;SDS011;7635;56.696;13.002;2023-01-09T05:21:12;3.30;;;2.40;;
15071;SDS011;7635;56.696;13.002;2023-01-09T05:23:39;5.20;;;2.53;;
15071;SDS011;7635;56.696;13.002;2023-01-09T05:26:06;3.23;;;2.57;;
15071;SDS011;7635;56.696;13.002;2023-01-09T05:28:32;13.50;;;6.83;;
15071;SDS011;7635;56.696;13.002;2023-01-09T05:30:59;10.73;;;6.70;;
15071;SDS011;7635;56.696;13.002;2023-01-09T05:33:26;4.70;;;3.10;;
15071;SDS011;7635;56.696;13.002;2023-01-09T05:35:54;6.77;;;5.80;;
15071;SDS011;7635;56.696;13.002;2023-01-09T05:38:20;3.97;;;2.90;;
15071;SDS011;7635;56.696;13.002;2023-01-09T05:40:47;4.20;;;2.97;;
15071;SDS011;7635;56.696;13.002;2023-01-09T05:43:14;4.00;;;3.60;;
15071;SDS011;7635;56.696;13.002;2023-01-09T05:45:40;6.93;;;6.23;;
15071;SDS011;7635;56.696;13.002;2023-01-09T05:48:08;5.40;;;2.83;;
15071;SDS011;7635;56.696;13.002;2023-01-09T05:50:34;4.13;;;3.00;;
15071;SDS011;7635;56.696;13.002;2023-01-09T05:53:03;3.73;;;2.07;;
15071;SDS011;7635;56.696;13.002;2023-01-09T05:55:30;5.47;;;2.97;;
15071;SDS011;7635;56.696;13.002;2023-01-09T05:57:57;3.03;;;2.20;;
15071;SDS011;7635;56.696;13.002;2023-01-09T06:00:24;2.60;;;2.20;;
15071;SDS011;7635;56.696;13.002;2023-01-09T06:02:51;2.90;;;2.30;;
15071;SDS011;7635;56.696;13.002;2023-01-09T06:05:18;2.13;;;1.93;;
15071;SDS011;7635;56.696;13.002;2023-01-09T06:07:44;2.27;;;2.03;;
15071;SDS011;7635;56.696;13.002;2023-01-09T06:10:13;2.47;;;2.13;;
15071;SDS011;7635;56.696;13.002;2023-01-09T06:12:40;4.43;;;2.53;;
15071;SDS011;7635;56.696;13.002;2023-01-09T06:15:11;3.60;;;2.20;;
15071;SDS011;7635;56.696;13.002;2023-01-09T06:17:39;3.10;;;2.30;;
15071;SDS011;7635;56.696;13.002;2023-01-09T06:20:06;3.80;;;2.13;;
15071;SDS011;7635;56.696;13.002;2023-01-09T06:22:34;5.03;;;2.50;;
15071;SDS011;7635;56.696;13.002;2023-01-09T06:25:00;3.30;;;2.40;;
15071;SDS011;7635;56.696;13.002;2023-01-09T06:27:29;3.03;;;2.37;;
15071;SDS011;7635;56.696;13.002;2023-01-09T06:29:56;3.40;;;2.40;;
15071;SDS011;7635;56.696;13.002;2023-01-09T06:32:22;3.53;;;2.37;;
15071;SDS011;7635;56.696;13.002;2023-01-09T06:34:49;2.50;;;2.20;;
15071;SDS011;7635;56.696;13.002;2023-01-09T06:37:15;2.30;;;2.03;;
15071;SDS011;7635;56.696;13.002;2023-01-09T06:39:42;3.80;;;2.70;;
15071;SDS011;7635;56.696;13.002;2023-01-09T06:42:09;3.53;;;2.53;;
15071;SDS011;7635;56.696;13.002;2023-01-09T06:44:37;2.80;;;2.03;;
15071;SDS011;7635;56.696;13.002;2023-01-09T06:47:04;6.10;;;2.17;;
15071;SDS011;7635;56.696;13.002;2023-01-09T06:49:30;2.40;;;2.20;;
15071;SDS011;7635;56.696;13.002;2023-01-09T06:51:57;2.40;;;2.00;;
15071;SDS011;7635;56.696;13.002;2023-01-09T06:54:29;2.87;;;2.30;;
15071;SDS011;7635;56.696;13.002;2023-01-09T06:56:56;3.67;;;2.23;;
15071;SDS011;7635;56.696;13.002;2023-01-09T06:59:22;2.53;;;2.27;;
15071;SDS011;7635;56.696;13.002;2023-01-09T07:01:50;5.67;;;2.53;;
15071;SDS011;7635;56.696;13.002;2023-01-09T07:04:17;2.67;;;2.30;;
15071;SDS011;7635;56.696;13.002;2023-01-09T07:06:46;3.80;;;2.17;;
15071;SDS011;7635;56.696;13.002;2023-01-09T07:09:14;3.27;;;2.40;;
15071;SDS011;7635;56.696;13.002;2023-01-09T07:11:40;2.57;;;2.00;;
15071;SDS011;7635;56.696;13.002;2023-01-09T07:14:07;3.83;;;2.13;;
15071;SDS011;7635;56.696;13.002;2023-01-09T07:16:34;3.17;;;2.30;;
15071;SDS011;7635;56.696;13.002;2023-01-09T07:19:02;3.57;;;2.27;;
15071;SDS011;7635;56.696;13.002;2023-01-09T07:21:28;3.17;;;2.20;;
15071;SDS011;7635;56.696;13.002;2023-01-09T07:23:55;2.73;;;2.23;;
15071;SDS011;7635;56.696;13.002;2023-01-09T07:26:22;2.37;;;2.17;;
15071;SDS011;7635;56.696;13.002;2023-01-09T07:28:48;3.03;;;2.47;;
15071;SDS011;7635;56.696;13.002;2023-01-09T07:31:15;2.47;;;2.20;;
15071;SDS011;7635;56.696;13.002;2023-01-09T07:33:42;2.90;;;1.97;;
15071;SDS011;7635;56.696;13.002;2023-01-09T07:36:10;4.20;;;2.37;;
15071;SDS011;7635;56.696;13.002;2023-01-09T07:38:36;3.53;;;2.83;;
15071;SDS011;7635;56.696;13.002;2023-01-09T07:41:03;3.40;;;2.63;;
15071;SDS011;7635;56.696;13.002;2023-01-09T07:43:30;2.63;;;2.17;;
15071;SDS011;7635;56.696;13.002;2023-01-09T07:45:57;3.80;;;2.20;;
15071;SDS011;7635;56.696;13.002;2023-01-09T07:48:23;4.57;;;2.90;;
15071;SDS011;7635;56.696;13.002;2023-01-09T07:50:50;6.07;;;2.80;;
15071;SDS011;7635;56.696;13.002;2023-01-09T07:53:18;2.80;;;2.50;;
15071;SDS011;7635;56.696;13.002;2023-01-09T07:55:45;3.07;;;2.67;;
15071;SDS011;7635;56.696;13.002;2023-01-09T07:58:12;3.50;;;2.63;;
15071;SDS011;7635;56.696;13.002;2023-01-09T08:00:38;4.33;;;2.70;;
15071;SDS011;7635;56.696;13.002;2023-01-09T08:03:05;3.80;;;2.60;;
15071;SDS011;7635;56.696;13.002;2023-01-09T08:05:32;3.30;;;2.30;;
15071;SDS011;7635;56.696;13.002;2023-01-09T08:07:58;3.03;;;2.57;;
15071;SDS011;7635;56.696;13.002;2023-01-09T08:10:27;2.97;;;2.50;;
15071;SDS011;7635;56.696;13.002;2023-01-09T08:12:53;3.37;;;2.47;;
15071;SDS011;7635;56.696;13.002;2023-01-09T08:15:20;4.10;;;3.13;;
15071;SDS011;7635;56.696;13.002;2023-01-09T08:17:47;3.93;;;2.60;;
15071;SDS011;7635;56.696;13.002;2023-01-09T08:20:14;3.97;;;2.80;;
15071;SDS011;7635;56.696;13.002;2023-01-09T08:22:42;3.30;;;2.80;;
15071;SDS011;7635;56.696;13.002;2023-01-09T08:25:13;4.27;;;2.60;;
15071;SDS011;7635;56.696;13.002;2023-01-09T08:27:42;4.73;;;2.93;;
15071;SDS011;7635;56.696;13.002;2023-01-09T08:30:10;5.20;;;2.90;;
15071;SDS011;7635;56.696;13.002;2023-01-09T08:32:37;2.77;;;2.33;;
15071;SDS011;7635;56.696;13.002;2023-01-09T08:35:05;3.80;;;2.60;;
15071;SDS011;7635;56.696;13.002;2023-01-09T08:37:33;5.30;;;3.00;;
15071;SDS011;7635;56.696;13.002;2023-01-09T08:40:00;3.50;;;2.70;;
15071;SDS011;7635;56.696;13.002;2023-01-09T08:42:26;3.43;;;2.43;;
15071;SDS011;7635;56.696;13.002;2023-01-09T08:45:12;3.47;;;2.90;;
15071;SDS011;7635;56.696;13.002;2023-01-09T08:47:56;4.67;;;3.40;;
15071;SDS011;7635;56.696;13.002;2023-01-09T08:50:23;6.20;;;3.10;;
15071;SDS011;7635;56.696;13.002;2023-01-09T08:52:50;6.07;;;3.60;;
15071;SDS011;7635;56.696;13.002;2023-01-09T08:55:16;4.00;;;2.93;;
15071;SDS011;7635;56.696;13.002;2023-01-09T08:57:46;4.30;;;2.97;;
15071;SDS011;7635;56.696;13.002;2023-01-09T09:00:15;4.60;;;3.00;;
15071;SDS011;7635;56.696;13.002;2023-01-09T09:02:42;3.10;;;2.50;;
15071;SDS011;7635;56.696;13.002;2023-01-09T09:05:09;4.90;;;3.23;;
15071;SDS011;7635;56.696;13.002;2023-01-09T09:07:36;5.83;;;3.07;;
15071;SDS011;7635;56.696;13.002;2023-01-09T09:10:03;4.97;;;3.10;;
15071;SDS011;7635;56.696;13.002;2023-01-09T09:12:30;4.90;;;2.93;;
15071;SDS011;7635;56.696;13.002;2023-01-09T09:14:57;5.23;;;3.57;;
15071;SDS011;7635;56.696;13.002;2023-01-09T09:17:41;5.47;;;3.47;;
15071;SDS011;7635;56.696;13.002;2023-01-09T09:20:09;5.57;;;3.70;;
15071;SDS011;7635;56.696;13.002;2023-01-09T09:22:36;3.97;;;3.10;;
15071;SDS011;7635;56.696;13.002;2023-01-09T09:25:03;4.47;;;3.17;;
15071;SDS011;7635;56.696;13.002;2023-01-09T09:27:31;4.90;;;3.47;;
15071;SDS011;7635;56.696;13.002;2023-01-09T09:29:58;3.87;;;2.83;;
15071;SDS011;7635;56.696;13.002;2023-01-09T09:32:24;4.63;;;3.40;;
15071;SDS011;7635;56.696;13.002;2023-01-09T09:34:52;5.37;;;3.17;;
15071;SDS011;7635;56.696;13.002;2023-01-09T09:37:19;5.87;;;3.40;;
15071;SDS011;7635;56.696;13.002;2023-01-09T09:39:46;4.80;;;2.87;;
15071;SDS011;7635;56.696;13.002;2023-01-09T09:42:16;4.53;;;3.33;;
15071;SDS011;7635;56.696;13.002;2023-01-09T09:45:18;4.30;;;3.20;;
15071;SDS011;7635;56.696;13.002;2023-01-09T09:47:52;5.93;;;3.00;;
15071;SDS011;7635;56.696;13.002;2023-01-09T09:50:31;4.60;;;3.33;;
15071;SDS011;7635;56.696;13.002;2023-01-09T09:53:15;5.70;;;3.53;;
15071;SDS011;7635;56.696;13.002;2023-01-09T09:55:45;5.97;;;3.37;;
15071;SDS011;7635;56.696;13.002;2023-01-09T09:58:15;4.43;;;3.30;;
15071;SDS011;7635;56.696;13.002;2023-01-09T10:00:46;4.50;;;3.20;;
15071;SDS011;7635;56.696;13.002;2023-01-09T10:03:17;5.87;;;3.70;;
15071;SDS011;7635;56.696;13.002;2023-01-09T10:05:50;4.47;;;3.13;;
15071;SDS011;7635;56.696;13.002;2023-01-09T10:08:23;5.63;;;3.83;;
15071;SDS011;7635;56.696;13.002;2023-01-09T10:10:55;5.40;;;3.47;;
15071;SDS011;7635;56.696;13.002;2023-01-09T10:13:22;4.90;;;3.40;;
15071;SDS011;7635;56.696;13.002;2023-01-09T10:16:10;5.73;;;3.83;;
15071;SDS011;7635;56.696;13.002;2023-01-09T10:18:48;6.47;;;3.73;;
15071;SDS011;7635;56.696;13.002;2023-01-09T10:21:30;6.17;;;3.57;;
15071;SDS011;7635;56.696;13.002;2023-01-09T10:24:04;5.00;;;3.57;;
15071;SDS011;7635;56.696;13.002;2023-01-09T10:26:41;4.60;;;3.07;;
15071;SDS011;7635;56.696;13.002;2023-01-09T10:32:12;5.03;;;3.80;;
15071;SDS011;7635;56.696;13.002;2023-01-09T10:34:49;5.10;;;3.33;;
15071;SDS011;7635;56.696;13.002;2023-01-09T10:37:23;9.03;;;4.00;;
15071;SDS011;7635;56.696;13.002;2023-01-09T10:39:53;6.93;;;3.70;;
15071;SDS011;7635;56.696;13.002;2023-01-09T10:42:25;5.77;;;3.77;;
15071;SDS011;7635;56.696;13.002;2023-01-09T10:44:58;6.03;;;3.50;;
15071;SDS011;7635;56.696;13.002;2023-01-09T10:47:33;3.43;;;2.93;;
15071;SDS011;7635;56.696;13.002;2023-01-09T10:50:08;4.67;;;2.87;;
15071;SDS011;7635;56.696;13.002;2023-01-09T10:52:46;5.70;;;3.90;;
15071;SDS011;7635;56.696;13.002;2023-01-09T10:55:16;3.47;;;3.03;;
15071;SDS011;7635;56.696;13.002;2023-01-09T10:57:45;4.87;;;3.33;;
15071;SDS011;7635;56.696;13.002;2023-01-09T11:00:15;6.33;;;3.67;;
15071;SDS011;7635;56.696;13.002;2023-01-09T11:02:44;5.50;;;3.73;;
15071;SDS011;7635;56.696;13.002;2023-01-09T11:05:12;5.87;;;3.63;;
15071;SDS011;7635;56.696;13.002;2023-01-09T11:07:42;5.40;;;3.90;;
15071;SDS011;7635;56.696;13.002;2023-01-09T11:10:12;5.67;;;3.43;;
15071;SDS011;7635;56.696;13.002;2023-01-09T11:12:40;6.50;;;4.23;;
15071;SDS011;7635;56.696;13.002;2023-01-09T11:15:22;7.37;;;4.27;;
15071;SDS011;7635;56.696;13.002;2023-01-09T11:17:57;4.77;;;3.40;;
15071;SDS011;7635;56.696;13.002;2023-01-09T11:20:39;4.63;;;2.83;;
15071;SDS011;7635;56.696;13.002;2023-01-09T11:23:09;5.10;;;3.47;;
15071;SDS011;7635;56.696;13.002;2023-01-09T11:25:53;4.63;;;2.97;;
15071;SDS011;7635;56.696;13.002;2023-01-09T11:28:21;5.03;;;3.27;;
15071;SDS011;7635;56.696;13.002;2023-01-09T11:30:52;7.10;;;3.83;;
15071;SDS011;7635;56.696;13.002;2023-01-09T11:33:21;6.07;;;3.83;;
15071;SDS011;7635;56.696;13.002;2023-01-09T11:35:56;4.50;;;3.20;;
15071;SDS011;7635;56.696;13.002;2023-01-09T11:38:29;6.07;;;3.90;;
15071;SDS011;7635;56.696;13.002;2023-01-09T11:40:59;4.13;;;3.23;;
15071;SDS011;7635;56.696;13.002;2023-01-09T11:43:28;8.13;;;4.53;;
15071;SDS011;7635;56.696;13.002;2023-01-09T11:45:59;3.77;;;3.13;;
15071;SDS011;7635;56.696;13.002;2023-01-09T11:48:29;5.57;;;3.47;;
15071;SDS011;7635;56.696;13.002;2023-01-09T11:51:04;4.83;;;3.43;;
15071;SDS011;7635;56.696;13.002;2023-01-09T11:53:44;5.33;;;3.10;;
15071;SDS011;7635;56.696;13.002;2023-01-09T11:56:16;6.27;;;4.30;;
15071;SDS011;7635;56.696;13.002;2023-01-09T11:58:43;3.63;;;2.90;;
15071;SDS011;7635;56.696;13.002;2023-01-09T12:01:14;4.57;;;3.30;;
15071;SDS011;7635;56.696;13.002;2023-01-09T12:03:55;5.23;;;3.70;;
15071;SDS011;7635;56.696;13.002;2023-01-09T12:06:41;4.73;;;3.20;;
15071;SDS011;7635;56.696;13.002;2023-01-09T12:09:18;5.33;;;3.20;;
15071;SDS011;7635;56.696;13.002;2023-01-09T12:11:51;4.70;;;3.40;;
15071;SDS011;7635;56.696;13.002;2023-01-09T12:14:29;5.57;;;3.43;;
15071;SDS011;7635;56.696;13.002;2023-01-09T12:17:13;6.37;;;3.30;;
15071;SDS011;7635;56.696;13.002;2023-01-09T12:20:14;3.87;;;2.77;;
15071;SDS011;7635;56.696;13.002;2023-01-09T12:22:49;4.63;;;2.93;;
15071;SDS011;7635;56.696;13.002;2023-01-09T12:25:24;5.73;;;4.20;;
15071;SDS011;7635;56.696;13.002;2023-01-09T12:28:08;4.83;;;3.07;;
15071;SDS011;7635;56.696;13.002;2023-01-09T12:30:58;5.97;;;3.40;;
15071;SDS011;7635;56.696;13.002;2023-01-09T12:33:36;5.23;;;2.77;;
15071;SDS011;7635;56.696;13.002;2023-01-09T12:36:10;2.60;;;2.40;;
15071;SDS011;7635;56.696;13.002;2023-01-09T12:38:46;3.67;;;2.53;;
15071;SDS011;7635;56.696;13.002;2023-01-09T12:41:21;3.90;;;2.47;;
15071;SDS011;7635;56.696;13.002;2023-01-09T12:44:32;5.20;;;2.03;;
15071;SDS011;7635;56.696;13.002;2023-01-09T12:47:14;4.37;;;2.80;;
15071;SDS011;7635;56.696;13.002;2023-01-09T12:50:08;3.40;;;2.70;;
15071;SDS011;7635;56.696;13.002;2023-01-09T12:53:02;3.40;;;2.50;;
15071;SDS011;7635;56.696;13.002;2023-01-09T12:55:34;2.43;;;2.23;;
15071;SDS011;7635;56.696;13.002;2023-01-09T12:58:07;4.03;;;2.60;;
15071;SDS011;7635;56.696;13.002;2023-01-09T13:00:42;3.47;;;2.70;;
15071;SDS011;7635;56.696;13.002;2023-01-09T13:03:15;4.77;;;2.40;;
15071;SDS011;7635;56.696;13.002;2023-01-09T13:05:47;4.00;;;2.40;;
15071;SDS011;7635;56.696;13.002;2023-01-09T13:08:16;3.27;;;2.63;;
15071;SDS011;7635;56.696;13.002;2023-01-09T13:10:48;3.33;;;2.30;;
15071;SDS011;7635;56.696;13.002;2023-01-09T13:13:19;3.17;;;2.27;;
15071;SDS011;7635;56.696;13.002;2023-01-09T13:15:53;2.40;;;2.10;;
15071;SDS011;7635;56.696;13.002;2023-01-09T13:18:24;3.07;;;2.30;;
15071;SDS011;7635;56.696;13.002;2023-01-09T13:20:54;3.07;;;2.37;;
15071;SDS011;7635;56.696;13.002;2023-01-09T13:23:24;2.67;;;2.33;;
15071;SDS011;7635;56.696;13.002;2023-01-09T13:25:56;2.50;;;2.13;;
15071;SDS011;7635;56.696;13.002;2023-01-09T13:28:24;2.90;;;2.30;;
15071;SDS011;7635;56.696;13.002;2023-01-09T13:33:53;2.30;;;2.00;;
15071;SDS011;7635;56.696;13.002;2023-01-09T13:36:23;3.03;;;2.43;;
15071;SDS011;7635;56.696;13.002;2023-01-09T13:38:52;2.03;;;1.83;;
15071;SDS011;7635;56.696;13.002;2023-01-09T13:41:21;2.93;;;2.00;;
15071;SDS011;7635;56.696;13.002;2023-01-09T13:44:05;2.63;;;2.30;;
15071;SDS011;7635;56.696;13.002;2023-01-09T13:46:48;2.37;;;2.17;;
15071;SDS011;7635;56.696;13.002;2023-01-09T13:49:30;3.00;;;2.20;;
15071;SDS011;7635;56.696;13.002;2023-01-09T13:51:59;3.13;;;2.20;;
15071;SDS011;7635;56.696;13.002;2023-01-09T13:57:41;3.50;;;2.70;;
15071;SDS011;7635;56.696;13.002;2023-01-09T14:03:17;2.83;;;2.37;;
15071;SDS011;7635;56.696;13.002;2023-01-09T14:06:08;1.90;;;1.80;;
15071;SDS011;7635;56.696;13.002;2023-01-09T14:08:37;2.23;;;2.00;;
15071;SDS011;7635;56.696;13.002;2023-01-09T14:11:05;1.57;;;1.40;;
15071;SDS011;7635;56.696;13.002;2023-01-09T14:13:36;3.20;;;1.87;;
15071;SDS011;7635;56.696;13.002;2023-01-09T14:16:06;2.27;;;1.97;;
15071;SDS011;7635;56.696;13.002;2023-01-09T14:18:45;2.03;;;1.73;;
15071;SDS011;7635;56.696;13.002;2023-01-09T14:21:14;2.20;;;1.73;;
15071;SDS011;7635;56.696;13.002;2023-01-09T14:23:46;3.83;;;2.50;;
15071;SDS011;7635;56.696;13.002;2023-01-09T14:26:16;2.53;;;2.13;;
15071;SDS011;7635;56.696;13.002;2023-01-09T14:28:45;1.70;;;1.60;;
15071;SDS011;7635;56.696;13.002;2023-01-09T14:31:25;2.77;;;1.87;;
15071;SDS011;7635;56.696;13.002;2023-01-09T14:36:53;1.60;;;1.50;;
15071;SDS011;7635;56.696;13.002;2023-01-09T14:39:23;1.40;;;1.30;;
15071;SDS011;7635;56.696;13.002;2023-01-09T14:41:50;1.50;;;1.40;;
15071;SDS011;7635;56.696;13.002;2023-01-09T14:44:30;1.33;;;1.23;;
15071;SDS011;7635;56.696;13.002;2023-01-09T14:47:02;1.90;;;1.70;;
15071;SDS011;7635;56.696;13.002;2023-01-09T14:49:38;2.97;;;2.33;;
15071;SDS011;7635;56.696;13.002;2023-01-09T14:52:09;2.40;;;1.63;;
15071;SDS011;7635;56.696;13.002;2023-01-09T14:54:43;1.07;;;1.07;;
15071;SDS011;7635;56.696;13.002;2023-01-09T14:57:23;1.70;;;1.60;;
15071;SDS011;7635;56.696;13.002;2023-01-09T14:59:54;1.57;;;1.40;;
15071;SDS011;7635;56.696;13.002;2023-01-09T15:02:25;1.13;;;1.13;;
15071;SDS011;7635;56.696;13.002;2023-01-09T15:04:57;1.20;;;1.20;;
15071;SDS011;7635;56.696;13.002;2023-01-09T15:07:25;1.53;;;1.30;;
15071;SDS011;7635;56.696;13.002;2023-01-09T15:09:58;1.10;;;1.10;;
15071;SDS011;7635;56.696;13.002;2023-01-09T15:12:27;1.30;;;1.20;;
15071;SDS011;7635;56.696;13.002;2023-01-09T15:14:56;0.90;;;0.90;;
15071;SDS011;7635;56.696;13.002;2023-01-09T15:17:25;1.07;;;0.97;;
15071;SDS011;7635;56.696;13.002;2023-01-09T15:19:54;1.07;;;0.97;;
15071;SDS011;7635;56.696;13.002;2023-01-09T15:22:26;1.37;;;1.27;;
15071;SDS011;7635;56.696;13.002;2023-01-09T15:24:54;5.13;;;2.93;;